sensor_id;sensor_type;location;lat;lon;timestamp;temperature;humidity
7234;DHT22;3658;47.992;10.158;2023-04-25T00:02:18;21.40;40.40
7234;DHT22;3658;47.992;10.158;2023-04-25T00:04:45;21.40;40.40
7234;DHT22;3658;47.992;10.158;2023-04-25T00:07:14;21.40;40.40
7234;DHT22;3658;47.992;10.158;2023-04-25T00:09:42;21.40;40.40
7234;DHT22;3658;47.992;10.158;2023-04-25T00:12:09;21.40;40.40
7234;DHT22;3658;47.992;10.158;2023-04-25T00:14:36;21.40;40.40
7234;DHT22;3658;47.992;10.158;2023-04-25T00:17:03;21.40;40.40
7234;DHT22;3658;47.992;10.158;2023-04-25T00:19:32;21.40;40.40
7234;DHT22;3658;47.992;10.158;2023-04-25T00:22:00;21.40;40.40
7234;DHT22;3658;47.992;10.158;2023-04-25T00:24:27;21.40;40.40
7234;DHT22;3658;47.992;10.158;2023-04-25T00:26:54;21.40;40.40
7234;DHT22;3658;47.992;10.158;2023-04-25T00:29:21;21.40;40.40
7234;DHT22;3658;47.992;10.158;2023-04-25T00:31:48;21.40;40.30
7234;DHT22;3658;47.992;10.158;2023-04-25T00:34:15;21.40;40.30
7234;DHT22;3658;47.992;10.158;2023-04-25T00:36:43;21.40;40.30
7234;DHT22;3658;47.992;10.158;2023-04-25T00:39:10;21.40;40.30
7234;DHT22;3658;47.992;10.158;2023-04-25T00:41:38;21.40;40.30
7234;DHT22;3658;47.992;10.158;2023-04-25T00:44:08;21.40;40.30
7234;DHT22;3658;47.992;10.158;2023-04-25T00:46:37;21.40;40.30
7234;DHT22;3658;47.992;10.158;2023-04-25T00:49:05;21.40;40.30
7234;DHT22;3658;47.992;10.158;2023-04-25T00:51:33;21.40;40.30
7234;DHT22;3658;47.992;10.158;2023-04-25T00:54:01;21.40;40.30
7234;DHT22;3658;47.992;10.158;2023-04-25T00:56:29;21.40;40.30
7234;DHT22;3658;47.992;10.158;2023-04-25T00:58:56;21.40;40.30
7234;DHT22;3658;47.992;10.158;2023-04-25T01:01:23;21.40;40.30
7234;DHT22;3658;47.992;10.158;2023-04-25T01:03:51;21.40;40.30
7234;DHT22;3658;47.992;10.158;2023-04-25T01:06:19;21.40;40.30
7234;DHT22;3658;47.992;10.158;2023-04-25T01:08:48;21.40;40.30
7234;DHT22;3658;47.992;10.158;2023-04-25T01:11:16;21.40;40.20
7234;DHT22;3658;47.992;10.158;2023-04-25T01:13:43;21.40;40.20
7234;DHT22;3658;47.992;10.158;2023-04-25T01:16:10;21.40;40.30
7234;DHT22;3658;47.992;10.158;2023-04-25T01:18:38;21.40;40.20
7234;DHT22;3658;47.992;10.158;2023-04-25T01:21:08;21.40;40.30
7234;DHT22;3658;47.992;10.158;2023-04-25T01:23:36;21.40;40.30
7234;DHT22;3658;47.992;10.158;2023-04-25T01:26:04;21.40;40.30
7234;DHT22;3658;47.992;10.158;2023-04-25T01:28:33;21.40;40.20
7234;DHT22;3658;47.992;10.158;2023-04-25T01:31:01;21.40;40.10
7234;DHT22;3658;47.992;10.158;2023-04-25T01:33:28;21.40;40.20
7234;DHT22;3658;47.992;10.158;2023-04-25T01:35:56;21.40;40.20
7234;DHT22;3658;47.992;10.158;2023-04-25T01:38:24;21.40;40.10
7234;DHT22;3658;47.992;10.158;2023-04-25T01:40:51;21.40;40.10
7234;DHT22;3658;47.992;10.158;2023-04-25T01:43:18;21.40;40.10
7234;DHT22;3658;47.992;10.158;2023-04-25T01:45:45;21.40;40.10
7234;DHT22;3658;47.992;10.158;2023-04-25T01:48:13;21.40;40.10
7234;DHT22;3658;47.992;10.158;2023-04-25T01:50:41;21.40;40.10
7234;DHT22;3658;47.992;10.158;2023-04-25T01:53:09;21.40;40.10
7234;DHT22;3658;47.992;10.158;2023-04-25T01:55:37;21.40;40.10
7234;DHT22;3658;47.992;10.158;2023-04-25T01:58:05;21.40;40.10
7234;DHT22;3658;47.992;10.158;2023-04-25T02:00:34;21.40;40.10
7234;DHT22;3658;47.992;10.158;2023-04-25T02:03:03;21.40;40.10
7234;DHT22;3658;47.992;10.158;2023-04-25T02:05:34;21.40;40.10
7234;DHT22;3658;47.992;10.158;2023-04-25T02:08:02;21.40;40.10
7234;DHT22;3658;47.992;10.158;2023-04-25T02:10:29;21.40;40.10
7234;DHT22;3658;47.992;10.158;2023-04-25T02:12:58;21.40;40.10
7234;DHT22;3658;47.992;10.158;2023-04-25T02:15:25;21.40;40.10
7234;DHT22;3658;47.992;10.158;2023-04-25T02:17:52;21.40;40.10
7234;DHT22;3658;47.992;10.158;2023-04-25T02:20:20;21.40;40.10
7234;DHT22;3658;47.992;10.158;2023-04-25T02:22:48;21.40;40.00
7234;DHT22;3658;47.992;10.158;2023-04-25T02:25:15;21.40;40.00
7234;DHT22;3658;47.992;10.158;2023-04-25T02:27:42;21.40;40.10
7234;DHT22;3658;47.992;10.158;2023-04-25T02:30:11;21.40;40.00
7234;DHT22;3658;47.992;10.158;2023-04-25T02:32:38;21.50;40.10
7234;DHT22;3658;47.992;10.158;2023-04-25T02:35:06;21.50;40.10
7234;DHT22;3658;47.992;10.158;2023-04-25T02:37:34;21.50;40.10
7234;DHT22;3658;47.992;10.158;2023-04-25T02:40:01;21.50;40.10
7234;DHT22;3658;47.992;10.158;2023-04-25T02:42:29;21.40;40.00
7234;DHT22;3658;47.992;10.158;2023-04-25T02:44:56;21.40;40.00
7234;DHT22;3658;47.992;10.158;2023-04-25T02:47:25;21.40;40.00
7234;DHT22;3658;47.992;10.158;2023-04-25T02:49:52;21.40;40.00
7234;DHT22;3658;47.992;10.158;2023-04-25T02:52:19;21.40;40.00
7234;DHT22;3658;47.992;10.158;2023-04-25T02:54:46;21.40;40.00
7234;DHT22;3658;47.992;10.158;2023-04-25T02:57:13;21.40;40.00
7234;DHT22;3658;47.992;10.158;2023-04-25T02:59:40;21.40;40.00
7234;DHT22;3658;47.992;10.158;2023-04-25T03:02:07;21.40;40.00
7234;DHT22;3658;47.992;10.158;2023-04-25T03:04:35;21.40;39.90
7234;DHT22;3658;47.992;10.158;2023-04-25T03:07:04;21.50;40.10
7234;DHT22;3658;47.992;10.158;2023-04-25T03:09:30;21.50;40.10
7234;DHT22;3658;47.992;10.158;2023-04-25T03:11:58;21.50;40.10
7234;DHT22;3658;47.992;10.158;2023-04-25T03:14:24;21.50;40.10
7234;DHT22;3658;47.992;10.158;2023-04-25T03:16:51;21.40;40.00
7234;DHT22;3658;47.992;10.158;2023-04-25T03:19:18;21.40;40.00
7234;DHT22;3658;47.992;10.158;2023-04-25T03:21:47;21.40;40.00
7234;DHT22;3658;47.992;10.158;2023-04-25T03:24:14;21.40;40.00
7234;DHT22;3658;47.992;10.158;2023-04-25T03:26:41;21.40;40.00
7234;DHT22;3658;47.992;10.158;2023-04-25T03:29:08;21.40;40.00
7234;DHT22;3658;47.992;10.158;2023-04-25T03:31:35;21.40;39.90
7234;DHT22;3658;47.992;10.158;2023-04-25T03:34:02;21.50;40.00
7234;DHT22;3658;47.992;10.158;2023-04-25T03:36:29;21.40;40.00
7234;DHT22;3658;47.992;10.158;2023-04-25T03:38:57;21.40;40.00
7234;DHT22;3658;47.992;10.158;2023-04-25T03:41:24;21.40;40.00
7234;DHT22;3658;47.992;10.158;2023-04-25T03:43:51;21.50;40.00
7234;DHT22;3658;47.992;10.158;2023-04-25T03:46:18;21.50;40.00
7234;DHT22;3658;47.992;10.158;2023-04-25T03:48:45;21.50;40.00
7234;DHT22;3658;47.992;10.158;2023-04-25T03:51:12;21.50;40.00
7234;DHT22;3658;47.992;10.158;2023-04-25T03:53:39;21.50;40.00
7234;DHT22;3658;47.992;10.158;2023-04-25T03:56:07;21.50;40.00
7234;DHT22;3658;47.992;10.158;2023-04-25T03:58:35;21.40;40.00
7234;DHT22;3658;47.992;10.158;2023-04-25T04:01:01;21.50;40.00
7234;DHT22;3658;47.992;10.158;2023-04-25T04:03:33;21.40;40.00
7234;DHT22;3658;47.992;10.158;2023-04-25T04:05:59;21.40;39.90
7234;DHT22;3658;47.992;10.158;2023-04-25T04:08:26;21.50;40.00
7234;DHT22;3658;47.992;10.158;2023-04-25T04:10:53;21.50;40.00
7234;DHT22;3658;47.992;10.158;2023-04-25T04:13:22;21.50;40.00
7234;DHT22;3658;47.992;10.158;2023-04-25T04:15:48;21.50;40.00
7234;DHT22;3658;47.992;10.158;2023-04-25T04:18:16;21.50;40.00
7234;DHT22;3658;47.992;10.158;2023-04-25T04:20:43;21.50;40.00
7234;DHT22;3658;47.992;10.158;2023-04-25T04:23:10;21.40;39.80
7234;DHT22;3658;47.992;10.158;2023-04-25T04:25:37;21.40;39.90
7234;DHT22;3658;47.992;10.158;2023-04-25T04:28:05;21.40;39.90
7234;DHT22;3658;47.992;10.158;2023-04-25T04:30:34;21.50;40.00
7234;DHT22;3658;47.992;10.158;2023-04-25T04:33:03;21.50;40.00
7234;DHT22;3658;47.992;10.158;2023-04-25T04:35:30;21.50;39.90
7234;DHT22;3658;47.992;10.158;2023-04-25T04:37:57;21.50;39.90
7234;DHT22;3658;47.992;10.158;2023-04-25T04:40:23;21.50;40.00
7234;DHT22;3658;47.992;10.158;2023-04-25T04:42:51;21.50;40.00
7234;DHT22;3658;47.992;10.158;2023-04-25T04:45:18;21.40;39.90
7234;DHT22;3658;47.992;10.158;2023-04-25T04:47:47;21.50;39.90
7234;DHT22;3658;47.992;10.158;2023-04-25T04:50:15;21.50;39.90
7234;DHT22;3658;47.992;10.158;2023-04-25T04:52:42;21.50;39.90
7234;DHT22;3658;47.992;10.158;2023-04-25T04:55:09;21.50;39.90
7234;DHT22;3658;47.992;10.158;2023-04-25T04:57:36;21.50;39.90
7234;DHT22;3658;47.992;10.158;2023-04-25T05:00:05;21.50;39.90
7234;DHT22;3658;47.992;10.158;2023-04-25T05:02:37;21.50;39.90
7234;DHT22;3658;47.992;10.158;2023-04-25T05:05:06;21.50;39.90
7234;DHT22;3658;47.992;10.158;2023-04-25T05:07:33;21.50;39.80
7234;DHT22;3658;47.992;10.158;2023-04-25T05:10:00;21.50;39.90
7234;DHT22;3658;47.992;10.158;2023-04-25T05:12:27;21.50;39.90
7234;DHT22;3658;47.992;10.158;2023-04-25T05:14:54;21.40;39.80
7234;DHT22;3658;47.992;10.158;2023-04-25T05:17:21;21.40;39.80
7234;DHT22;3658;47.992;10.158;2023-04-25T05:19:48;21.50;39.90
7234;DHT22;3658;47.992;10.158;2023-04-25T05:22:16;21.50;39.90
7234;DHT22;3658;47.992;10.158;2023-04-25T05:24:43;21.50;39.80
7234;DHT22;3658;47.992;10.158;2023-04-25T05:27:10;21.50;39.90
7234;DHT22;3658;47.992;10.158;2023-04-25T05:29:37;21.50;39.80
7234;DHT22;3658;47.992;10.158;2023-04-25T05:32:05;21.50;39.90
7234;DHT22;3658;47.992;10.158;2023-04-25T05:34:33;21.50;39.90
7234;DHT22;3658;47.992;10.158;2023-04-25T05:37:00;21.50;39.80
7234;DHT22;3658;47.992;10.158;2023-04-25T05:39:28;21.50;39.90
7234;DHT22;3658;47.992;10.158;2023-04-25T05:41:55;21.40;39.80
7234;DHT22;3658;47.992;10.158;2023-04-25T05:44:22;21.50;39.80
7234;DHT22;3658;47.992;10.158;2023-04-25T05:46:49;21.50;39.80
7234;DHT22;3658;47.992;10.158;2023-04-25T05:49:16;21.50;39.80
7234;DHT22;3658;47.992;10.158;2023-04-25T05:51:44;21.50;39.80
7234;DHT22;3658;47.992;10.158;2023-04-25T05:54:11;21.50;40.00
7234;DHT22;3658;47.992;10.158;2023-04-25T05:56:39;21.50;41.10
7234;DHT22;3658;47.992;10.158;2023-04-25T05:59:06;21.40;41.60
7234;DHT22;3658;47.992;10.158;2023-04-25T06:01:33;21.50;41.90
7234;DHT22;3658;47.992;10.158;2023-04-25T06:04:00;21.50;42.10
7234;DHT22;3658;47.992;10.158;2023-04-25T06:06:27;21.50;42.20
7234;DHT22;3658;47.992;10.158;2023-04-25T06:08:54;21.40;42.10
7234;DHT22;3658;47.992;10.158;2023-04-25T06:11:21;21.40;42.20
7234;DHT22;3658;47.992;10.158;2023-04-25T06:13:49;21.40;42.50
7234;DHT22;3658;47.992;10.158;2023-04-25T06:16:16;21.40;42.50
7234;DHT22;3658;47.992;10.158;2023-04-25T06:18:43;21.40;42.60
7234;DHT22;3658;47.992;10.158;2023-04-25T06:21:10;21.40;42.70
7234;DHT22;3658;47.992;10.158;2023-04-25T06:23:37;21.40;42.70
7234;DHT22;3658;47.992;10.158;2023-04-25T06:26:04;21.40;42.70
7234;DHT22;3658;47.992;10.158;2023-04-25T06:28:31;21.40;42.60
7234;DHT22;3658;47.992;10.158;2023-04-25T06:30:59;21.40;42.50
7234;DHT22;3658;47.992;10.158;2023-04-25T06:33:26;21.40;42.50
7234;DHT22;3658;47.992;10.158;2023-04-25T06:35:53;21.40;42.40
7234;DHT22;3658;47.992;10.158;2023-04-25T06:38:20;21.40;42.50
7234;DHT22;3658;47.992;10.158;2023-04-25T06:40:47;21.50;43.00
7234;DHT22;3658;47.992;10.158;2023-04-25T06:43:14;21.50;43.20
7234;DHT22;3658;47.992;10.158;2023-04-25T06:45:41;21.60;43.30
7234;DHT22;3658;47.992;10.158;2023-04-25T06:48:10;21.60;43.30
7234;DHT22;3658;47.992;10.158;2023-04-25T06:50:37;21.60;43.30
7234;DHT22;3658;47.992;10.158;2023-04-25T06:53:04;21.60;43.20
7234;DHT22;3658;47.992;10.158;2023-04-25T06:55:31;21.60;43.20
7234;DHT22;3658;47.992;10.158;2023-04-25T06:57:58;21.60;43.00
7234;DHT22;3658;47.992;10.158;2023-04-25T07:00:25;21.50;43.20
7234;DHT22;3658;47.992;10.158;2023-04-25T07:02:53;21.60;43.50
7234;DHT22;3658;47.992;10.158;2023-04-25T07:05:22;21.60;43.50
7234;DHT22;3658;47.992;10.158;2023-04-25T07:07:49;21.60;43.50
7234;DHT22;3658;47.992;10.158;2023-04-25T07:10:16;21.60;43.60
7234;DHT22;3658;47.992;10.158;2023-04-25T07:12:43;21.60;43.70
7234;DHT22;3658;47.992;10.158;2023-04-25T07:15:10;21.60;43.70
7234;DHT22;3658;47.992;10.158;2023-04-25T07:17:37;21.60;43.70
7234;DHT22;3658;47.992;10.158;2023-04-25T07:20:05;21.60;43.70
7234;DHT22;3658;47.992;10.158;2023-04-25T07:22:34;21.60;43.70
7234;DHT22;3658;47.992;10.158;2023-04-25T07:25:01;21.60;43.60
7234;DHT22;3658;47.992;10.158;2023-04-25T07:27:30;21.60;43.70
7234;DHT22;3658;47.992;10.158;2023-04-25T07:29:57;21.70;43.70
7234;DHT22;3658;47.992;10.158;2023-04-25T07:32:25;21.60;43.60
7234;DHT22;3658;47.992;10.158;2023-04-25T07:34:53;21.60;43.70
7234;DHT22;3658;47.992;10.158;2023-04-25T07:37:19;21.70;43.60
7234;DHT22;3658;47.992;10.158;2023-04-25T07:39:48;21.60;43.60
7234;DHT22;3658;47.992;10.158;2023-04-25T07:42:15;21.70;43.70
7234;DHT22;3658;47.992;10.158;2023-04-25T07:44:42;21.70;43.60
7234;DHT22;3658;47.992;10.158;2023-04-25T07:47:09;21.70;43.50
7234;DHT22;3658;47.992;10.158;2023-04-25T07:49:37;21.70;43.50
7234;DHT22;3658;47.992;10.158;2023-04-25T07:52:04;21.70;43.60
7234;DHT22;3658;47.992;10.158;2023-04-25T07:54:32;21.70;43.60
7234;DHT22;3658;47.992;10.158;2023-04-25T07:57:00;21.70;43.60
7234;DHT22;3658;47.992;10.158;2023-04-25T07:59:27;21.70;43.50
7234;DHT22;3658;47.992;10.158;2023-04-25T08:01:54;21.70;43.60
7234;DHT22;3658;47.992;10.158;2023-04-25T08:04:22;21.70;43.50
7234;DHT22;3658;47.992;10.158;2023-04-25T08:06:50;21.70;43.50
7234;DHT22;3658;47.992;10.158;2023-04-25T08:09:18;21.70;43.50
7234;DHT22;3658;47.992;10.158;2023-04-25T08:11:45;21.70;43.50
7234;DHT22;3658;47.992;10.158;2023-04-25T08:14:13;21.70;43.40
7234;DHT22;3658;47.992;10.158;2023-04-25T08:16:40;21.70;43.50
7234;DHT22;3658;47.992;10.158;2023-04-25T08:19:07;21.70;43.50
7234;DHT22;3658;47.992;10.158;2023-04-25T08:21:34;21.70;43.60
7234;DHT22;3658;47.992;10.158;2023-04-25T08:24:01;21.70;43.60
7234;DHT22;3658;47.992;10.158;2023-04-25T08:26:28;21.70;43.60
7234;DHT22;3658;47.992;10.158;2023-04-25T08:28:55;21.70;43.60
7234;DHT22;3658;47.992;10.158;2023-04-25T08:31:24;21.70;43.50
7234;DHT22;3658;47.992;10.158;2023-04-25T08:33:51;21.70;43.60
7234;DHT22;3658;47.992;10.158;2023-04-25T08:36:18;21.70;43.50
7234;DHT22;3658;47.992;10.158;2023-04-25T08:38:45;21.70;43.50
7234;DHT22;3658;47.992;10.158;2023-04-25T08:41:13;21.70;43.70
7234;DHT22;3658;47.992;10.158;2023-04-25T08:43:42;21.70;43.50
7234;DHT22;3658;47.992;10.158;2023-04-25T08:46:11;21.70;43.50
7234;DHT22;3658;47.992;10.158;2023-04-25T08:48:41;21.70;43.50
7234;DHT22;3658;47.992;10.158;2023-04-25T08:51:10;21.70;43.60
7234;DHT22;3658;47.992;10.158;2023-04-25T08:53:41;21.70;43.60
7234;DHT22;3658;47.992;10.158;2023-04-25T08:56:12;21.70;43.60
7234;DHT22;3658;47.992;10.158;2023-04-25T08:58:43;21.70;43.60
7234;DHT22;3658;47.992;10.158;2023-04-25T09:01:11;21.70;43.70
7234;DHT22;3658;47.992;10.158;2023-04-25T09:03:39;21.70;43.60
7234;DHT22;3658;47.992;10.158;2023-04-25T09:06:07;21.70;43.50
7234;DHT22;3658;47.992;10.158;2023-04-25T09:08:36;21.70;43.50
7234;DHT22;3658;47.992;10.158;2023-04-25T09:11:03;21.70;43.50
7234;DHT22;3658;47.992;10.158;2023-04-25T09:13:30;21.70;43.40
7234;DHT22;3658;47.992;10.158;2023-04-25T09:15:58;21.70;43.30
7234;DHT22;3658;47.992;10.158;2023-04-25T09:18:26;21.70;43.30
7234;DHT22;3658;47.992;10.158;2023-04-25T09:20:56;21.70;43.40
7234;DHT22;3658;47.992;10.158;2023-04-25T09:23:23;21.70;43.40
7234;DHT22;3658;47.992;10.158;2023-04-25T09:25:52;21.70;43.30
7234;DHT22;3658;47.992;10.158;2023-04-25T09:28:24;21.70;43.20
7234;DHT22;3658;47.992;10.158;2023-04-25T09:30:55;21.70;43.30
7234;DHT22;3658;47.992;10.158;2023-04-25T09:33:28;21.60;42.20
7234;DHT22;3658;47.992;10.158;2023-04-25T09:36:04;21.50;41.40
7234;DHT22;3658;47.992;10.158;2023-04-25T09:38:32;21.50;40.60
7234;DHT22;3658;47.992;10.158;2023-04-25T09:40:59;21.40;39.20
7234;DHT22;3658;47.992;10.158;2023-04-25T09:43:27;21.40;39.30
7234;DHT22;3658;47.992;10.158;2023-04-25T09:45:55;21.50;39.60
7234;DHT22;3658;47.992;10.158;2023-04-25T09:48:26;21.50;39.80
7234;DHT22;3658;47.992;10.158;2023-04-25T09:51:09;21.50;40.10
7234;DHT22;3658;47.992;10.158;2023-04-25T09:53:37;21.60;40.40
7234;DHT22;3658;47.992;10.158;2023-04-25T09:56:07;21.60;40.80
7234;DHT22;3658;47.992;10.158;2023-04-25T09:58:35;21.50;40.80
7234;DHT22;3658;47.992;10.158;2023-04-25T10:01:04;21.60;41.00
7234;DHT22;3658;47.992;10.158;2023-04-25T10:03:33;21.60;41.60
7234;DHT22;3658;47.992;10.158;2023-04-25T10:06:01;21.60;42.10
7234;DHT22;3658;47.992;10.158;2023-04-25T10:08:33;21.70;42.30
7234;DHT22;3658;47.992;10.158;2023-04-25T10:11:02;21.70;41.90
7234;DHT22;3658;47.992;10.158;2023-04-25T10:13:30;21.60;41.60
7234;DHT22;3658;47.992;10.158;2023-04-25T10:15:58;21.60;41.50
7234;DHT22;3658;47.992;10.158;2023-04-25T10:18:26;21.60;41.60
7234;DHT22;3658;47.992;10.158;2023-04-25T10:20:55;21.50;41.50
7234;DHT22;3658;47.992;10.158;2023-04-25T10:23:23;21.50;41.50
7234;DHT22;3658;47.992;10.158;2023-04-25T10:25:52;21.50;41.60
7234;DHT22;3658;47.992;10.158;2023-04-25T10:28:20;21.50;41.60
7234;DHT22;3658;47.992;10.158;2023-04-25T10:31:07;21.50;41.60
7234;DHT22;3658;47.992;10.158;2023-04-25T10:33:35;21.50;41.60
7234;DHT22;3658;47.992;10.158;2023-04-25T10:36:10;21.50;41.60
7234;DHT22;3658;47.992;10.158;2023-04-25T10:38:37;21.50;41.60
7234;DHT22;3658;47.992;10.158;2023-04-25T10:41:07;21.50;41.90
7234;DHT22;3658;47.992;10.158;2023-04-25T10:43:37;21.50;42.30
7234;DHT22;3658;47.992;10.158;2023-04-25T10:46:16;21.60;42.50
7234;DHT22;3658;47.992;10.158;2023-04-25T10:48:48;21.60;42.60
7234;DHT22;3658;47.992;10.158;2023-04-25T10:51:22;21.60;42.40
7234;DHT22;3658;47.992;10.158;2023-04-25T10:54:00;21.60;42.20
7234;DHT22;3658;47.992;10.158;2023-04-25T10:56:29;21.60;41.80
7234;DHT22;3658;47.992;10.158;2023-04-25T10:59:07;21.60;41.40
7234;DHT22;3658;47.992;10.158;2023-04-25T11:01:37;21.50;41.40
7234;DHT22;3658;47.992;10.158;2023-04-25T11:04:05;21.50;41.60
7234;DHT22;3658;47.992;10.158;2023-04-25T11:06:42;21.50;41.80
7234;DHT22;3658;47.992;10.158;2023-04-25T11:09:12;21.60;41.90
7234;DHT22;3658;47.992;10.158;2023-04-25T11:11:41;21.60;41.90
7234;DHT22;3658;47.992;10.158;2023-04-25T11:14:08;21.60;42.30
7234;DHT22;3658;47.992;10.158;2023-04-25T11:16:35;21.70;42.90
7234;DHT22;3658;47.992;10.158;2023-04-25T11:19:03;21.70;43.10
7234;DHT22;3658;47.992;10.158;2023-04-25T11:21:30;21.70;43.20
7234;DHT22;3658;47.992;10.158;2023-04-25T11:23:59;21.70;43.20
7234;DHT22;3658;47.992;10.158;2023-04-25T11:26:27;21.70;43.20
7234;DHT22;3658;47.992;10.158;2023-04-25T11:28:59;21.70;43.20
7234;DHT22;3658;47.992;10.158;2023-04-25T11:31:26;21.70;43.10
7234;DHT22;3658;47.992;10.158;2023-04-25T11:33:53;21.70;43.10
7234;DHT22;3658;47.992;10.158;2023-04-25T11:36:22;21.70;43.10
7234;DHT22;3658;47.992;10.158;2023-04-25T11:38:50;21.70;43.70
7234;DHT22;3658;47.992;10.158;2023-04-25T11:41:18;21.70;43.00
7234;DHT22;3658;47.992;10.158;2023-04-25T11:43:44;21.70;43.10
7234;DHT22;3658;47.992;10.158;2023-04-25T11:46:13;21.70;43.00
7234;DHT22;3658;47.992;10.158;2023-04-25T11:48:40;21.70;43.10
7234;DHT22;3658;47.992;10.158;2023-04-25T11:51:08;21.60;42.90
7234;DHT22;3658;47.992;10.158;2023-04-25T11:53:35;21.60;42.90
7234;DHT22;3658;47.992;10.158;2023-04-25T11:56:09;21.60;42.90
7234;DHT22;3658;47.992;10.158;2023-04-25T11:58:54;21.60;43.00
7234;DHT22;3658;47.992;10.158;2023-04-25T12:01:33;21.60;42.90
7234;DHT22;3658;47.992;10.158;2023-04-25T12:04:11;21.60;42.90
7234;DHT22;3658;47.992;10.158;2023-04-25T12:06:38;21.60;42.90
7234;DHT22;3658;47.992;10.158;2023-04-25T12:09:08;21.60;42.90
7234;DHT22;3658;47.992;10.158;2023-04-25T12:11:41;21.60;42.90
7234;DHT22;3658;47.992;10.158;2023-04-25T12:14:08;21.60;42.90
7234;DHT22;3658;47.992;10.158;2023-04-25T12:16:44;21.60;43.10
7234;DHT22;3658;47.992;10.158;2023-04-25T12:19:13;21.70;43.00
7234;DHT22;3658;47.992;10.158;2023-04-25T12:21:41;21.60;42.80
7234;DHT22;3658;47.992;10.158;2023-04-25T12:24:13;21.60;42.70
7234;DHT22;3658;47.992;10.158;2023-04-25T12:26:48;21.60;43.00
7234;DHT22;3658;47.992;10.158;2023-04-25T12:29:17;21.60;43.20
7234;DHT22;3658;47.992;10.158;2023-04-25T12:31:45;21.60;43.30
7234;DHT22;3658;47.992;10.158;2023-04-25T12:34:12;21.70;43.40
7234;DHT22;3658;47.992;10.158;2023-04-25T12:36:40;21.60;43.30
7234;DHT22;3658;47.992;10.158;2023-04-25T12:39:07;21.70;43.40
7234;DHT22;3658;47.992;10.158;2023-04-25T12:41:34;21.70;43.50
7234;DHT22;3658;47.992;10.158;2023-04-25T12:44:01;21.70;43.50
7234;DHT22;3658;47.992;10.158;2023-04-25T12:46:28;21.70;43.60
7234;DHT22;3658;47.992;10.158;2023-04-25T12:48:57;21.70;43.60
7234;DHT22;3658;47.992;10.158;2023-04-25T12:51:24;21.70;43.70
7234;DHT22;3658;47.992;10.158;2023-04-25T12:53:53;21.70;43.70
7234;DHT22;3658;47.992;10.158;2023-04-25T12:56:20;21.70;43.70
7234;DHT22;3658;47.992;10.158;2023-04-25T12:58:47;21.70;43.70
7234;DHT22;3658;47.992;10.158;2023-04-25T13:01:14;21.70;43.60
7234;DHT22;3658;47.992;10.158;2023-04-25T13:03:41;21.70;43.80
7234;DHT22;3658;47.992;10.158;2023-04-25T13:06:10;21.70;44.00
7234;DHT22;3658;47.992;10.158;2023-04-25T13:08:38;21.60;43.90
7234;DHT22;3658;47.992;10.158;2023-04-25T13:11:07;21.60;44.00
7234;DHT22;3658;47.992;10.158;2023-04-25T13:13:34;21.70;43.90
7234;DHT22;3658;47.992;10.158;2023-04-25T13:16:02;21.70;43.90
7234;DHT22;3658;47.992;10.158;2023-04-25T13:18:29;21.70;43.90
7234;DHT22;3658;47.992;10.158;2023-04-25T13:20:56;21.70;43.90
7234;DHT22;3658;47.992;10.158;2023-04-25T13:23:27;21.70;44.00
7234;DHT22;3658;47.992;10.158;2023-04-25T13:25:55;21.70;44.70
7234;DHT22;3658;47.992;10.158;2023-04-25T13:28:23;21.70;43.90
7234;DHT22;3658;47.992;10.158;2023-04-25T13:30:50;21.70;44.10
7234;DHT22;3658;47.992;10.158;2023-04-25T13:33:18;21.70;44.10
7234;DHT22;3658;47.992;10.158;2023-04-25T13:35:46;21.70;44.30
7234;DHT22;3658;47.992;10.158;2023-04-25T13:38:20;21.70;44.40
7234;DHT22;3658;47.992;10.158;2023-04-25T13:40:49;21.70;44.30
7234;DHT22;3658;47.992;10.158;2023-04-25T13:43:18;21.70;44.30
7234;DHT22;3658;47.992;10.158;2023-04-25T13:45:45;21.70;44.30
7234;DHT22;3658;47.992;10.158;2023-04-25T13:48:12;21.70;44.30
7234;DHT22;3658;47.992;10.158;2023-04-25T13:50:39;21.60;44.20
7234;DHT22;3658;47.992;10.158;2023-04-25T13:53:06;21.70;44.30
7234;DHT22;3658;47.992;10.158;2023-04-25T13:55:34;21.70;44.30
7234;DHT22;3658;47.992;10.158;2023-04-25T13:58:03;21.70;44.40
7234;DHT22;3658;47.992;10.158;2023-04-25T14:00:35;21.70;44.40
7234;DHT22;3658;47.992;10.158;2023-04-25T14:03:03;21.70;44.70
7234;DHT22;3658;47.992;10.158;2023-04-25T14:05:33;21.70;44.50
7234;DHT22;3658;47.992;10.158;2023-04-25T14:08:04;21.70;44.20
7234;DHT22;3658;47.992;10.158;2023-04-25T14:10:31;21.70;44.20
7234;DHT22;3658;47.992;10.158;2023-04-25T14:12:58;21.70;44.10
7234;DHT22;3658;47.992;10.158;2023-04-25T14:15:27;21.70;44.10
7234;DHT22;3658;47.992;10.158;2023-04-25T14:17:54;21.60;44.00
7234;DHT22;3658;47.992;10.158;2023-04-25T14:20:21;21.60;43.90
7234;DHT22;3658;47.992;10.158;2023-04-25T14:22:49;21.60;43.80
7234;DHT22;3658;47.992;10.158;2023-04-25T14:25:17;21.70;43.70
7234;DHT22;3658;47.992;10.158;2023-04-25T14:27:44;21.60;43.60
7234;DHT22;3658;47.992;10.158;2023-04-25T14:30:15;21.60;43.60
7234;DHT22;3658;47.992;10.158;2023-04-25T14:32:43;21.60;43.60
7234;DHT22;3658;47.992;10.158;2023-04-25T14:35:11;21.60;43.60
7234;DHT22;3658;47.992;10.158;2023-04-25T14:37:38;21.60;43.50
7234;DHT22;3658;47.992;10.158;2023-04-25T14:40:06;21.60;43.50
7234;DHT22;3658;47.992;10.158;2023-04-25T14:42:34;21.50;43.30
7234;DHT22;3658;47.992;10.158;2023-04-25T14:45:02;21.50;43.30
7234;DHT22;3658;47.992;10.158;2023-04-25T14:47:29;21.60;48.70
7234;DHT22;3658;47.992;10.158;2023-04-25T14:49:58;21.70;48.40
7234;DHT22;3658;47.992;10.158;2023-04-25T14:52:27;21.70;47.30
7234;DHT22;3658;47.992;10.158;2023-04-25T14:54:53;21.80;46.60
7234;DHT22;3658;47.992;10.158;2023-04-25T14:57:21;21.80;46.30
7234;DHT22;3658;47.992;10.158;2023-04-25T14:59:47;21.80;46.10
7234;DHT22;3658;47.992;10.158;2023-04-25T15:02:15;21.80;45.90
7234;DHT22;3658;47.992;10.158;2023-04-25T15:04:42;21.80;45.70
7234;DHT22;3658;47.992;10.158;2023-04-25T15:07:10;21.80;45.50
7234;DHT22;3658;47.992;10.158;2023-04-25T15:09:37;21.80;45.30
7234;DHT22;3658;47.992;10.158;2023-04-25T15:12:05;21.70;45.20
7234;DHT22;3658;47.992;10.158;2023-04-25T15:14:33;21.70;45.40
7234;DHT22;3658;47.992;10.158;2023-04-25T15:17:00;21.70;45.50
7234;DHT22;3658;47.992;10.158;2023-04-25T15:19:27;21.70;45.40
7234;DHT22;3658;47.992;10.158;2023-04-25T15:21:54;21.70;45.30
7234;DHT22;3658;47.992;10.158;2023-04-25T15:24:23;21.70;45.30
7234;DHT22;3658;47.992;10.158;2023-04-25T15:26:50;21.70;45.20
7234;DHT22;3658;47.992;10.158;2023-04-25T15:29:17;21.70;45.00
7234;DHT22;3658;47.992;10.158;2023-04-25T15:31:44;21.70;45.00
7234;DHT22;3658;47.992;10.158;2023-04-25T15:34:11;21.60;44.80
7234;DHT22;3658;47.992;10.158;2023-04-25T15:36:38;21.60;44.90
7234;DHT22;3658;47.992;10.158;2023-04-25T15:39:05;21.60;44.80
7234;DHT22;3658;47.992;10.158;2023-04-25T15:41:34;21.60;44.70
7234;DHT22;3658;47.992;10.158;2023-04-25T15:44:01;21.60;44.60
7234;DHT22;3658;47.992;10.158;2023-04-25T15:46:28;21.60;44.50
7234;DHT22;3658;47.992;10.158;2023-04-25T15:48:56;21.60;44.30
7234;DHT22;3658;47.992;10.158;2023-04-25T15:51:23;21.60;44.20